createdAt,value
2018-05-18T00:00:54.403Z,88.90
2018-05-18T00:03:22.715Z,88.70
2018-05-18T00:05:50.267Z,88.70
2018-05-18T00:08:18.569Z,89.10
2018-05-18T00:10:46.150Z,89.10
2018-05-18T00:13:13.721Z,88.60
2018-05-18T00:15:41.291Z,89.00
2018-05-18T00:18:08.845Z,89.00
2018-05-18T00:20:36.430Z,89.20
2018-05-18T00:23:03.982Z,89.20
2018-05-18T00:25:31.531Z,89.30
2018-05-18T00:27:59.104Z,89.20
2018-05-18T00:30:26.646Z,89.60
2018-05-18T00:32:54.216Z,89.60
2018-05-18T00:35:21.787Z,89.70
2018-05-18T00:37:49.342Z,89.40
2018-05-18T00:40:16.915Z,89.70
2018-05-18T00:42:44.492Z,89.80
2018-05-18T00:45:12.068Z,90.00
2018-05-18T00:47:39.621Z,89.90
2018-05-18T00:50:07.171Z,89.70
2018-05-18T00:52:34.723Z,89.80
2018-05-18T00:55:02.300Z,90.30
2018-05-18T00:57:29.864Z,90.20
2018-05-18T00:59:57.430Z,90.20
2018-05-18T01:02:24.993Z,90.50
2018-05-18T01:04:52.562Z,90.90
2018-05-18T01:07:20.135Z,90.70
2018-05-18T01:09:47.694Z,90.90
2018-05-18T01:12:15.243Z,91.10
2018-05-18T01:14:42.843Z,90.90
2018-05-18T01:17:10.390Z,91.50
2018-05-18T01:19:37.959Z,91.50
2018-05-18T01:22:05.530Z,91.40
2018-05-18T01:24:33.112Z,91.30
2018-05-18T01:27:00.788Z,91.70
2018-05-18T01:29:28.308Z,91.60
2018-05-18T01:31:55.862Z,91.90
2018-05-18T01:34:23.413Z,92.10
2018-05-18T01:36:50.964Z,92.20
2018-05-18T01:39:18.549Z,92.20
2018-05-18T01:41:46.091Z,92.20
2018-05-18T01:44:13.653Z,92.10
2018-05-18T01:46:41.227Z,92.20
2018-05-18T01:49:08.805Z,92.30
2018-05-18T01:51:36.382Z,92.60
2018-05-18T01:54:03.976Z,92.60
2018-05-18T01:56:31.614Z,92.80
2018-05-18T01:58:59.191Z,92.90
2018-05-18T02:01:26.758Z,93.00
2018-05-18T02:03:54.312Z,92.90
2018-05-18T02:06:21.862Z,93.00
2018-05-18T02:08:49.431Z,93.00
2018-05-18T02:11:16.993Z,93.00
2018-05-18T02:13:44.562Z,93.50
2018-05-18T02:16:12.105Z,93.20
2018-05-18T02:18:39.646Z,93.20
2018-05-18T02:21:07.181Z,93.30
2018-05-18T02:23:34.732Z,93.40
2018-05-18T02:26:02.306Z,93.30
2018-05-18T02:28:29.888Z,93.40
2018-05-18T02:30:57.475Z,93.00
2018-05-18T02:33:25.056Z,93.30
2018-05-18T02:35:52.634Z,93.10
2018-05-18T02:38:20.208Z,93.10
2018-05-18T02:40:47.818Z,93.20
2018-05-18T02:43:16.133Z,93.10
2018-05-18T02:45:43.703Z,93.10
2018-05-18T02:48:11.238Z,93.40
2018-05-18T02:50:38.778Z,93.50
2018-05-18T02:53:06.325Z,93.40
2018-05-18T02:55:33.902Z,93.30
2018-05-18T02:58:01.472Z,93.10
2018-05-18T03:00:29.021Z,93.50
2018-05-18T03:02:56.567Z,93.40
2018-05-18T03:05:24.102Z,93.20
2018-05-18T03:07:51.656Z,93.20
2018-05-18T03:10:19.220Z,92.90
2018-05-18T03:12:46.772Z,92.80
2018-05-18T03:15:15.068Z,93.00
2018-05-18T03:17:42.644Z,93.00
2018-05-18T03:20:10.199Z,92.90
2018-05-18T03:22:37.735Z,93.00
2018-05-18T03:25:05.307Z,93.00
2018-05-18T03:27:33.647Z,92.90
2018-05-18T03:30:01.206Z,92.80
2018-05-18T03:32:28.769Z,92.70
2018-05-18T03:34:56.334Z,92.80
2018-05-18T03:37:23.903Z,92.70
2018-05-18T03:39:51.450Z,92.60
2018-05-18T03:42:19.027Z,92.80
2018-05-18T03:44:46.587Z,92.60
2018-05-18T03:47:14.145Z,92.30
2018-05-18T03:49:41.715Z,91.80
2018-05-18T03:52:09.271Z,92.40
2018-05-18T03:54:36.824Z,92.10
2018-05-18T03:57:04.391Z,92.30
2018-05-18T03:59:31.944Z,92.50
2018-05-18T04:02:23.041Z,92.40
2018-05-18T04:05:02.363Z,92.50
2018-05-18T04:07:41.771Z,92.00
2018-05-18T04:10:10.098Z,92.30
2018-05-18T04:12:37.662Z,92.30
2018-05-18T04:15:05.236Z,92.30
2018-05-18T04:17:32.788Z,92.10
2018-05-18T04:20:00.364Z,92.00
2018-05-18T04:22:28.816Z,92.50
2018-05-18T04:24:57.151Z,92.10
2018-05-18T04:27:24.711Z,92.10
2018-05-18T04:29:52.289Z,92.40
2018-05-18T04:32:19.842Z,92.10
2018-05-18T04:34:47.402Z,92.40
2018-05-18T04:37:14.976Z,92.20
2018-05-18T04:39:42.555Z,92.10
2018-05-18T04:42:10.125Z,91.90
2018-05-18T04:44:37.693Z,91.20
2018-05-18T04:47:05.263Z,91.80
2018-05-18T04:49:32.808Z,91.30
2018-05-18T04:52:00.346Z,91.30
2018-05-18T04:54:27.901Z,91.10
2018-05-18T04:56:55.451Z,90.90
2018-05-18T04:59:22.994Z,90.70
2018-05-18T05:01:51.357Z,91.30
2018-05-18T05:04:18.913Z,91.50
2018-05-18T05:06:46.526Z,90.70
2018-05-18T05:09:14.074Z,90.80
2018-05-18T05:11:42.376Z,90.50
2018-05-18T05:14:09.948Z,90.50
2018-05-18T05:16:37.503Z,90.70
2018-05-18T05:19:05.098Z,89.80
2018-05-18T05:21:33.274Z,90.10
2018-05-18T05:24:00.817Z,90.40
2018-05-18T05:26:28.399Z,90.30
2018-05-18T05:28:55.958Z,90.40
2018-05-18T05:31:23.499Z,90.80
2018-05-18T05:33:51.098Z,90.10
2018-05-18T05:36:18.651Z,90.20
2018-05-18T05:38:46.189Z,89.20
2018-05-18T05:41:13.780Z,89.10
2018-05-18T05:43:41.351Z,89.40
2018-05-18T05:46:08.917Z,89.20
2018-05-18T05:48:36.493Z,89.60
2018-05-18T05:51:04.068Z,89.70
2018-05-18T05:53:31.617Z,89.20
2018-05-18T05:55:59.175Z,89.40
2018-05-18T05:58:26.797Z,89.30
2018-05-18T06:00:54.395Z,88.30
2018-05-18T06:03:21.940Z,88.80
2018-05-18T06:05:49.546Z,88.60
2018-05-18T06:08:17.116Z,89.10
2018-05-18T06:10:44.691Z,88.60
2018-05-18T06:13:12.274Z,88.00
2018-05-18T06:15:40.615Z,88.30
2018-05-18T06:18:08.185Z,88.30
2018-05-18T06:20:35.758Z,86.80
2018-05-18T06:23:03.326Z,87.70
2018-05-18T06:25:30.879Z,86.70
2018-05-18T06:27:58.447Z,87.40
2018-05-18T06:30:25.999Z,87.70
2018-05-18T06:32:53.545Z,87.00
2018-05-18T06:35:21.091Z,86.90
2018-05-18T06:37:48.636Z,87.10
2018-05-18T06:40:16.951Z,85.20
2018-05-18T06:42:44.523Z,85.20
2018-05-18T06:45:12.107Z,85.70
2018-05-18T06:47:39.661Z,86.20
2018-05-18T06:50:07.249Z,84.00
2018-05-18T06:52:34.881Z,84.60
2018-05-18T06:55:03.204Z,83.90
2018-05-18T06:57:30.742Z,83.90
2018-05-18T06:59:58.284Z,83.40
2018-05-18T07:02:25.833Z,84.10
2018-05-18T07:04:53.411Z,84.70
2018-05-18T07:07:20.982Z,84.90
2018-05-18T07:09:48.545Z,84.80
2018-05-18T07:12:16.124Z,83.70
2018-05-18T07:14:43.679Z,84.20
2018-05-18T07:17:11.252Z,82.50
2018-05-18T07:19:38.803Z,82.90
2018-05-18T07:22:06.376Z,83.00
2018-05-18T07:24:33.987Z,82.90
2018-05-18T07:27:02.303Z,82.70
2018-05-18T07:29:30.108Z,82.80
2018-05-18T07:31:57.863Z,82.80
2018-05-18T07:34:25.411Z,83.70
2018-05-18T07:36:52.969Z,83.30
2018-05-18T07:39:20.650Z,83.00
2018-05-18T07:41:48.226Z,82.50
2018-05-18T07:44:15.803Z,82.30
2018-05-18T07:46:43.377Z,82.50
2018-05-18T07:49:10.937Z,81.90
2018-05-18T07:51:38.477Z,82.20
2018-05-18T07:54:06.016Z,82.40
2018-05-18T07:56:33.603Z,82.80
2018-05-18T07:59:01.138Z,83.00
2018-05-18T08:01:28.711Z,82.10
2018-05-18T08:03:56.264Z,81.50
2018-05-18T08:06:23.811Z,81.00
2018-05-18T08:08:52.159Z,81.90
2018-05-18T08:11:19.715Z,81.80
2018-05-18T08:13:47.292Z,82.50
2018-05-18T08:16:14.875Z,82.30
2018-05-18T08:18:43.218Z,81.70
2018-05-18T08:21:10.790Z,81.70
2018-05-18T08:23:41.344Z,81.70
2018-05-18T08:26:09.700Z,81.40
2018-05-18T08:29:00.901Z,80.50
2018-05-18T08:31:28.445Z,81.70
2018-05-18T08:33:56.007Z,80.30
2018-05-18T08:36:23.569Z,80.20
2018-05-18T08:38:51.122Z,81.60
2018-05-18T08:41:18.676Z,81.10
2018-05-18T08:43:47.010Z,80.30
2018-05-18T08:46:14.563Z,80.40
2018-05-18T08:48:42.143Z,80.00
2018-05-18T08:51:09.695Z,78.80
2018-05-18T08:53:37.283Z,80.70
2018-05-18T08:56:04.859Z,81.30
2018-05-18T08:58:32.455Z,79.50
2018-05-18T09:01:00.018Z,79.70
2018-05-18T09:03:27.606Z,78.70
2018-05-18T09:05:55.542Z,79.20
2018-05-18T09:08:23.882Z,78.20
2018-05-18T09:10:51.448Z,78.20
2018-05-18T09:13:18.986Z,77.30
2018-05-18T09:15:46.620Z,78.60
2018-05-18T09:18:14.128Z,77.10
2018-05-18T09:20:41.698Z,76.80
2018-05-18T09:23:09.248Z,76.30
2018-05-18T09:25:36.795Z,76.80
2018-05-18T09:28:04.369Z,78.40
2018-05-18T09:30:31.912Z,76.10
2018-05-18T09:32:59.483Z,76.40
2018-05-18T09:35:27.051Z,75.90
2018-05-18T09:37:54.630Z,76.60
2018-05-18T09:40:22.197Z,74.70
2018-05-18T09:42:49.815Z,76.00
2018-05-18T09:45:18.230Z,74.50
2018-05-18T09:47:59.988Z,74.40
2018-05-18T09:50:29.732Z,74.10
2018-05-18T09:52:57.315Z,76.70
2018-05-18T09:55:24.965Z,72.50
2018-05-18T09:57:52.445Z,72.90
2018-05-18T10:00:19.989Z,74.80
2018-05-18T10:02:47.558Z,74.50
2018-05-18T10:05:15.218Z,74.20
2018-05-18T10:07:42.781Z,73.50
2018-05-18T10:10:15.368Z,73.60
2018-05-18T10:12:56.967Z,74.80
2018-05-18T10:15:24.536Z,73.60
2018-05-18T10:17:52.097Z,71.30
2018-05-18T10:20:19.659Z,73.70
2018-05-18T10:22:47.196Z,72.60
2018-05-18T10:25:14.810Z,71.70
2018-05-18T10:27:42.390Z,71.10
2018-05-18T10:30:13.183Z,71.40
2018-05-18T10:32:41.174Z,70.20
2018-05-18T10:35:08.746Z,69.10
2018-05-18T10:37:36.325Z,70.60
2018-05-18T10:40:03.912Z,65.50
2018-05-18T10:42:31.487Z,64.80
2018-05-18T10:44:59.041Z,65.50
2018-05-18T10:47:27.365Z,63.60
2018-05-18T10:49:54.931Z,63.60
2018-05-18T10:52:22.511Z,67.20
2018-05-18T10:54:50.087Z,66.00
2018-05-18T10:57:17.635Z,67.70
2018-05-18T10:59:45.200Z,65.30
2018-05-18T11:02:12.957Z,67.70
2018-05-18T11:04:40.522Z,63.00
2018-05-18T11:07:08.074Z,64.70
2018-05-18T11:09:35.648Z,63.10
2018-05-18T11:12:03.213Z,63.00
2018-05-18T11:14:30.759Z,63.30
2018-05-18T11:16:58.327Z,64.00
2018-05-18T11:19:25.870Z,66.10
2018-05-18T11:21:53.455Z,65.30
2018-05-18T11:24:20.997Z,63.90
2018-05-18T11:26:48.553Z,63.80
2018-05-18T11:29:16.974Z,61.70
2018-05-18T11:31:44.561Z,62.80
2018-05-18T11:34:12.158Z,60.90
2018-05-18T11:36:40.515Z,62.60
2018-05-18T11:39:08.232Z,62.40
2018-05-18T11:41:35.747Z,61.30
2018-05-18T11:44:03.344Z,61.60
2018-05-18T11:46:31.693Z,59.60
2018-05-18T11:48:59.242Z,59.50
2018-05-18T11:51:27.532Z,61.00
2018-05-18T11:53:55.093Z,61.70
2018-05-18T11:56:22.672Z,62.00
2018-05-18T11:58:50.283Z,63.00
2018-05-18T12:01:17.860Z,63.20
2018-05-18T12:03:45.429Z,63.50
2018-05-18T12:06:12.979Z,64.60
2018-05-18T12:08:40.563Z,65.70
2018-05-18T12:11:08.129Z,65.70
2018-05-18T12:13:35.666Z,63.70
2018-05-18T12:16:03.246Z,65.40
2018-05-18T12:18:30.818Z,63.60
2018-05-18T12:20:58.367Z,62.40
2018-05-18T12:23:25.955Z,63.40
2018-05-18T12:25:53.531Z,60.90
2018-05-18T12:28:21.153Z,60.70
2018-05-18T12:30:48.703Z,64.70
2018-05-18T12:33:17.040Z,62.80
2018-05-18T12:35:44.583Z,62.80
2018-05-18T12:38:12.197Z,63.70
2018-05-18T12:40:39.738Z,65.50
2018-05-18T12:43:07.310Z,64.10
2018-05-18T12:45:34.863Z,64.30
2018-05-18T12:48:02.412Z,65.10
2018-05-18T12:50:29.986Z,64.10
2018-05-18T12:52:58.127Z,65.50
2018-05-18T12:55:26.637Z,67.20
2018-05-18T12:57:54.211Z,67.10
2018-05-18T13:00:21.759Z,64.10
2018-05-18T13:02:49.312Z,66.50
2018-05-18T13:05:16.940Z,66.00
2018-05-18T13:07:44.514Z,63.70
2018-05-18T13:10:12.838Z,63.80
2018-05-18T13:12:40.407Z,63.80
2018-05-18T13:15:07.960Z,65.10
2018-05-18T13:17:35.535Z,65.10
2018-05-18T13:20:03.129Z,66.40
2018-05-18T13:22:30.678Z,63.20
2018-05-18T13:24:58.253Z,62.90
2018-05-18T13:27:25.831Z,63.00
2018-05-18T13:29:53.408Z,64.10
2018-05-18T13:32:21.737Z,63.50
2018-05-18T13:34:49.283Z,63.50
2018-05-18T13:37:16.837Z,65.60
2018-05-18T13:39:44.482Z,64.30
2018-05-18T13:42:12.087Z,66.50
2018-05-18T13:44:39.765Z,65.70
2018-05-18T13:47:08.037Z,67.60
2018-05-18T13:49:35.593Z,66.50
2018-05-18T13:52:03.126Z,63.50
2018-05-18T13:54:31.471Z,63.30
2018-05-18T13:56:59.028Z,63.30
2018-05-18T13:59:26.601Z,65.50
2018-05-18T14:01:54.141Z,67.60
2018-05-18T14:04:21.691Z,65.60
2018-05-18T14:06:49.422Z,65.40
2018-05-18T14:09:16.975Z,66.20
2018-05-18T14:11:44.564Z,66.20
2018-05-18T14:14:12.901Z,65.80
2018-05-18T14:16:40.474Z,65.90
2018-05-18T14:19:08.063Z,65.80
2018-05-18T14:21:35.615Z,65.50
2018-05-18T14:24:03.204Z,67.30
2018-05-18T14:26:31.650Z,65.50
2018-05-18T14:28:59.134Z,65.50
2018-05-18T14:31:26.677Z,66.30
2018-05-18T14:33:54.227Z,65.10
2018-05-18T14:36:21.835Z,66.10
2018-05-18T14:38:50.137Z,69.30
2018-05-18T14:41:17.677Z,69.20
2018-05-18T14:43:45.221Z,67.90
2018-05-18T14:46:12.767Z,68.10
2018-05-18T14:48:40.374Z,68.30
2018-05-18T14:51:08.695Z,65.10
2018-05-18T14:53:36.242Z,65.10
2018-05-18T14:56:03.808Z,67.50
2018-05-18T14:58:31.413Z,68.40
2018-05-18T15:00:58.962Z,68.50
2018-05-18T15:03:26.587Z,68.10
2018-05-18T15:05:54.903Z,68.70
2018-05-18T15:08:22.445Z,68.70
2018-05-18T15:10:50.882Z,67.40
2018-05-18T15:13:19.118Z,67.10
2018-05-18T15:15:46.707Z,67.10
2018-05-18T15:18:14.249Z,67.70
2018-05-18T15:20:41.818Z,69.10
2018-05-18T15:23:09.392Z,68.30
2018-05-18T15:25:36.933Z,68.90
2018-05-18T15:28:04.479Z,69.30
2018-05-18T15:30:32.835Z,69.30
2018-05-18T15:33:00.389Z,71.20
2018-05-18T15:35:27.959Z,71.70
2018-05-18T15:37:55.544Z,71.20
2018-05-18T15:40:44.312Z,70.90
2018-05-18T15:43:11.895Z,70.70
2018-05-18T15:45:39.489Z,70.10
2018-05-18T15:48:07.049Z,71.30
2018-05-18T15:50:34.601Z,70.70
2018-05-18T15:53:02.133Z,70.40
2018-05-18T15:55:33.110Z,71.00
2018-05-18T15:58:00.935Z,71.80
2018-05-18T16:00:29.280Z,71.30
2018-05-18T16:02:56.868Z,71.30
2018-05-18T16:05:24.629Z,71.90
2018-05-18T16:07:52.250Z,72.30
2018-05-18T16:10:20.211Z,72.50
2018-05-18T16:12:47.819Z,72.10
2018-05-18T16:15:15.365Z,72.20
2018-05-18T16:17:42.992Z,72.00
2018-05-18T16:20:11.550Z,73.20
2018-05-18T16:22:39.108Z,72.50
2018-05-18T16:25:06.670Z,71.90
2018-05-18T16:27:34.210Z,73.10
2018-05-18T16:30:01.787Z,71.60
2018-05-18T16:32:29.358Z,71.60
2018-05-18T16:34:56.897Z,72.30
2018-05-18T16:37:24.466Z,72.50
2018-05-18T16:39:52.039Z,73.10
2018-05-18T16:42:19.578Z,73.50
2018-05-18T16:44:47.136Z,74.00
2018-05-18T16:47:14.669Z,73.70
2018-05-18T16:49:43.002Z,73.90
2018-05-18T16:52:10.583Z,73.90
2018-05-18T16:54:38.857Z,74.50
2018-05-18T16:57:06.447Z,75.60
2018-05-18T16:59:34.168Z,74.80
2018-05-18T17:02:01.735Z,75.40
2018-05-18T17:04:29.277Z,74.80
2018-05-18T17:06:56.822Z,75.80
2018-05-18T17:09:25.126Z,72.80
2018-05-18T17:11:52.662Z,72.90
2018-05-18T17:14:20.244Z,75.20
2018-05-18T17:16:47.802Z,75.70
2018-05-18T17:19:16.126Z,74.90
2018-05-18T17:21:43.705Z,74.90
2018-05-18T17:24:11.274Z,75.70
2018-05-18T17:26:38.855Z,76.20
2018-05-18T17:29:06.447Z,76.00
2018-05-18T17:31:34.804Z,76.20
2018-05-18T17:34:02.353Z,76.10
2018-05-18T17:36:29.944Z,75.50
2018-05-18T17:38:58.263Z,76.10
2018-05-18T17:41:25.819Z,76.00
2018-05-18T17:43:53.391Z,75.70
2018-05-18T17:46:20.953Z,77.10
2018-05-18T17:48:48.546Z,77.40
2018-05-18T17:51:16.126Z,76.80
2018-05-18T17:53:43.694Z,77.10
2018-05-18T17:56:11.288Z,77.50
2018-05-18T17:58:39.612Z,76.90
2018-05-18T18:01:07.187Z,76.90
2018-05-18T18:03:34.751Z,76.50
2018-05-18T18:06:02.347Z,77.40
2018-05-18T18:08:30.687Z,77.20
2018-05-18T18:10:58.241Z,77.20
2018-05-18T18:13:25.805Z,77.30
2018-05-18T18:15:53.399Z,77.90
2018-05-18T18:18:20.991Z,77.90
2018-05-18T18:20:49.334Z,78.10
2018-05-18T18:23:16.891Z,78.10
2018-05-18T18:25:44.459Z,78.90
2018-05-18T18:28:12.047Z,78.80
2018-05-18T18:30:39.596Z,78.20
2018-05-18T18:33:07.175Z,78.40
2018-05-18T18:35:34.735Z,78.60
2018-05-18T18:38:02.314Z,78.20
2018-05-18T18:40:29.930Z,78.90
2018-05-18T18:42:57.479Z,78.30
2018-05-18T18:45:25.085Z,78.90
2018-05-18T18:47:52.640Z,78.80
2018-05-18T18:50:20.233Z,79.10
2018-05-18T18:52:48.602Z,79.20
2018-05-18T18:55:16.159Z,79.20
2018-05-18T18:57:43.699Z,79.40
2018-05-18T19:00:11.292Z,79.40
2018-05-18T19:02:38.883Z,79.50
2018-05-18T19:05:07.235Z,79.60
2018-05-18T19:07:34.787Z,79.60
2018-05-18T19:10:02.350Z,79.80
2018-05-18T19:12:29.978Z,79.70
2018-05-18T19:14:57.554Z,80.10
2018-05-18T19:17:25.131Z,80.20
2018-05-18T19:19:52.693Z,80.20
2018-05-18T19:22:20.402Z,80.00
2018-05-18T19:24:47.967Z,80.20
2018-05-18T19:27:15.541Z,80.00
2018-05-18T19:29:43.194Z,80.10
2018-05-18T19:32:10.723Z,80.20
2018-05-18T19:34:38.272Z,79.90
2018-05-18T19:37:05.822Z,80.20
2018-05-18T19:39:34.163Z,80.60
2018-05-18T19:42:01.739Z,80.50
2018-05-18T19:44:29.299Z,80.90
2018-05-18T19:46:56.874Z,80.30
2018-05-18T19:49:24.422Z,80.30
2018-05-18T19:51:51.993Z,80.50
2018-05-18T19:54:19.576Z,80.90
2018-05-18T19:56:47.929Z,80.60
2018-05-18T19:59:15.538Z,80.60
2018-05-18T20:01:43.859Z,80.00
2018-05-18T20:04:11.407Z,80.00
2018-05-18T20:06:38.953Z,79.60
2018-05-18T20:09:06.506Z,80.20
2018-05-18T20:11:34.894Z,80.00
2018-05-18T20:14:03.235Z,79.90
2018-05-18T20:16:30.786Z,79.90
2018-05-18T20:18:58.339Z,80.00
2018-05-18T20:21:25.906Z,80.00
2018-05-18T20:23:53.468Z,80.60
2018-05-18T20:26:21.024Z,81.30
2018-05-18T20:28:48.588Z,80.20
2018-05-18T20:31:16.174Z,80.80
2018-05-18T20:33:43.736Z,81.00
2018-05-18T20:36:11.311Z,81.00
2018-05-18T20:38:38.886Z,80.80
2018-05-18T20:41:07.249Z,80.30
2018-05-18T20:43:34.809Z,80.30
2018-05-18T20:46:02.380Z,80.40
2018-05-18T20:48:29.940Z,80.90
2018-05-18T20:50:57.552Z,81.40
2018-05-18T20:53:26.089Z,81.80
2018-05-18T20:55:53.674Z,81.80
2018-05-18T20:58:21.233Z,81.30
2018-05-18T21:00:48.848Z,81.40
2018-05-18T21:03:16.428Z,81.80
2018-05-18T21:05:44.037Z,81.80
2018-05-18T21:08:11.943Z,81.50
2018-05-18T21:10:40.384Z,81.40
2018-05-18T21:13:08.624Z,81.70
2018-05-18T21:15:36.211Z,81.70
2018-05-18T21:18:03.787Z,81.50
2018-05-18T21:20:31.375Z,81.30
2018-05-18T21:22:58.919Z,81.50
2018-05-18T21:25:26.493Z,81.80
2018-05-18T21:27:54.045Z,81.60
2018-05-18T21:30:21.609Z,81.60
2018-05-18T21:32:49.160Z,81.50
2018-05-18T21:35:16.709Z,81.70
2018-05-18T21:37:44.260Z,81.90
2018-05-18T21:40:11.797Z,81.90
2018-05-18T21:42:39.402Z,82.50
2018-05-18T21:45:06.959Z,81.80
2018-05-18T21:47:34.526Z,82.30
2018-05-18T21:50:02.116Z,82.30
2018-05-18T21:52:29.679Z,82.20
2018-05-18T21:54:57.241Z,82.70
2018-05-18T21:57:24.811Z,82.60
2018-05-18T21:59:52.365Z,82.80
2018-05-18T22:02:19.938Z,82.50
2018-05-18T22:04:47.516Z,83.00
2018-05-18T22:07:15.071Z,82.70
2018-05-18T22:09:42.624Z,82.50
2018-05-18T22:12:10.180Z,82.50
2018-05-18T22:14:37.791Z,82.60
2018-05-18T22:17:05.346Z,82.10
2018-05-18T22:19:32.906Z,82.60
2018-05-18T22:22:00.454Z,82.70
2018-05-18T22:24:28.026Z,83.10
2018-05-18T22:26:55.587Z,83.50
2018-05-18T22:29:23.141Z,83.00
2018-05-18T22:31:50.720Z,82.70
2018-05-18T22:34:18.270Z,83.40
2018-05-18T22:36:45.801Z,83.30
2018-05-18T22:39:13.345Z,83.50
2018-05-18T22:41:41.678Z,83.40
2018-05-18T22:44:09.217Z,83.40
2018-05-18T22:46:36.762Z,83.10
2018-05-18T22:49:05.109Z,83.20
2018-05-18T22:51:32.862Z,83.20
2018-05-18T22:54:00.403Z,83.40
2018-05-18T22:56:27.937Z,82.80
2018-05-18T22:58:56.244Z,83.50
2018-05-18T23:01:23.812Z,83.50
2018-05-18T23:03:51.378Z,83.50
2018-05-18T23:06:18.918Z,84.20
2018-05-18T23:08:47.270Z,83.70
2018-05-18T23:11:14.846Z,83.70
2018-05-18T23:13:43.173Z,84.00
2018-05-18T23:16:10.719Z,84.00
2018-05-18T23:18:38.275Z,84.10
2018-05-18T23:21:06.612Z,84.20
2018-05-18T23:23:34.158Z,84.20
2018-05-18T23:26:01.705Z,84.50
2018-05-18T23:28:29.283Z,84.20
2018-05-18T23:30:56.831Z,84.20
2018-05-18T23:33:24.406Z,83.70
2018-05-18T23:35:52.045Z,84.30
2018-05-18T23:38:19.590Z,84.50
2018-05-18T23:40:47.936Z,84.50
2018-05-18T23:43:15.487Z,84.50
2018-05-18T23:45:43.045Z,85.00
2018-05-18T23:48:10.597Z,84.30
2018-05-18T23:50:38.153Z,84.60
2018-05-18T23:53:05.703Z,84.80
2018-05-18T23:55:34.043Z,85.10
2018-05-18T23:58:01.581Z,85.00
